Time;durP1;ratioP1;P1;durP2;ratioP2;P2;SDS_P1;SDS_P2;PMS_P1;PMS_P2;Temp;Humidity;BMP_temperature;BMP_pressure;BME280_temperature;BME280_humidity;BME280_pressure;Samples;Min_cycle;Max_cycle;Signal;HPM_P1;HPM_P2
2022/10/13 00:00:09;;;;;;;10.23;2.00;;;8.80;71.90;;;;;;4109815;28;20085;-84
2022/10/13 00:02:30;;;;;;;6.97;1.85;;;8.90;71.90;;;;;;4109236;28;20055;-83
2022/10/13 00:04:50;;;;;;;12.48;2.33;;;8.90;72.70;;;;;;4105703;28;20170;-83
2022/10/13 00:07:11;;;;;;;11.70;2.22;;;8.80;71.90;;;;;;4109942;28;20035;-84
2022/10/13 00:09:32;;;;;;;15.45;2.15;;;8.90;71.90;;;;;;4109775;28;20053;-83
2022/10/13 00:11:56;;;;;;;10.70;2.03;;;8.90;71.90;;;;;;4107222;28;20093;-82
2022/10/13 00:14:17;;;;;;;7.45;2.17;;;8.90;71.90;;;;;;4106648;28;20038;-84
2022/10/13 00:16:38;;;;;;;7.45;1.88;;;8.90;71.90;;;;;;4101628;28;20038;-84
2022/10/13 00:18:59;;;;;;;9.65;1.95;;;8.90;71.90;;;;;;4121496;28;20052;-84
2022/10/13 00:21:23;;;;;;;8.98;2.25;;;8.90;71.90;;;;;;4108155;28;20173;-85
2022/10/13 00:23:44;;;;;;;;;;;8.90;71.90;;;;;;4107413;28;20035;-84
2022/10/13 00:26:06;;;;;;;14.10;1.95;;;8.90;72.40;;;;;;4119044;28;19913;-83
2022/10/13 00:28:27;;;;;;;9.27;2.33;;;8.90;71.60;;;;;;4105372;28;20030;-84
2022/10/13 00:30:48;;;;;;;7.97;1.98;;;9.00;71.80;;;;;;4107963;28;20027;-84
2022/10/13 00:33:10;;;;;;;11.60;2.60;;;8.90;71.60;;;;;;4107144;28;20035;-84
2022/10/13 00:35:31;;;;;;;7.53;1.73;;;8.90;71.60;;;;;;4107033;28;20038;-84
2022/10/13 00:37:52;;;;;;;11.82;2.10;;;8.90;71.60;;;;;;4106074;28;20027;-84
2022/10/13 00:40:13;;;;;;;12.77;2.30;;;8.90;71.40;;;;;;4106669;28;20125;-83
2022/10/13 00:42:33;;;;;;;8.13;2.20;;;8.90;71.40;;;;;;4105628;28;20045;-84
2022/10/13 00:45:03;;;;;;;8.57;2.38;;;8.90;71.30;;;;;;4107098;28;20126;-83
2022/10/13 00:47:37;;;;;;;12.13;2.20;;;8.90;71.30;;;;;;4102685;28;20051;-82
2022/10/13 00:49:59;;;;;;;7.78;2.08;;;8.90;71.40;;;;;;4106548;28;20031;-85
2022/10/13 00:52:22;;;;;;;10.00;2.15;;;8.90;71.20;;;;;;4103974;28;20387;-83
2022/10/13 00:54:43;;;;;;;6.57;2.13;;;8.90;71.30;;;;;;4105588;28;20027;-84
2022/10/13 00:57:07;;;;;;;10.27;1.80;;;8.90;71.20;;;;;;4097911;28;20027;-83
2022/10/13 00:59:28;;;;;;;11.00;2.77;;;8.80;71.10;;;;;;4104362;28;20081;-84
2022/10/13 01:01:50;;;;;;;16.20;2.55;;;8.80;71.10;;;;;;4105485;28;20034;-84
2022/10/13 01:04:10;;;;;;;8.75;2.28;;;8.80;71.00;;;;;;4108512;28;20135;-83
2022/10/13 01:06:32;;;;;;;7.10;2.03;;;8.80;71.00;;;;;;4104768;28;20035;-85
2022/10/13 01:08:53;;;;;;;11.82;3.10;;;8.80;71.00;;;;;;4121224;28;20037;-84
2022/10/13 01:11:22;;;;;;;8.00;2.28;;;8.70;71.00;;;;;;4105820;28;20115;-83
2022/10/13 01:13:52;;;;;;;7.07;2.10;;;8.70;71.00;;;;;;4106198;28;20046;-84
2022/10/13 01:16:50;;;;;;;12.32;2.78;;;8.70;71.00;;;;;;4107928;28;20089;-84
2022/10/13 01:19:23;;;;;;;13.18;2.30;;;8.70;71.30;;;;;;4103370;28;20038;-84
2022/10/13 01:21:57;;;;;;;8.50;2.22;;;8.70;71.20;;;;;;4106194;28;20059;-83
2022/10/13 01:24:36;;;;;;;10.23;2.57;;;8.70;71.20;;;;;;4104888;28;20030;-82
2022/10/13 01:27:02;;;;;;;11.75;2.55;;;8.70;71.20;;;;;;4108785;28;20293;-83
2022/10/13 01:30:03;;;;;;;11.23;2.42;;;8.70;71.30;;;;;;4104439;28;20038;-83
2022/10/13 01:32:50;;;;;;;9.77;2.20;;;8.70;71.60;;;;;;4101435;28;20573;-84
2022/10/13 01:35:02;;;;;;;12.13;2.45;;;8.70;71.60;;;;;;4124932;28;20061;-83
2022/10/13 01:37:14;;;;;;;7.13;2.58;;;8.70;71.60;;;;;;4105279;28;20034;-83
2022/10/13 01:39:23;;;;;;;11.68;2.20;;;8.60;71.70;;;;;;4108214;28;20117;-83
2022/10/13 01:41:35;;;;;;;15.05;2.75;;;8.70;71.80;;;;;;4107960;28;20035;-83
2022/10/13 01:43:49;;;;;;;14.52;2.40;;;8.70;71.90;;;;;;4105689;28;20030;-83
2022/10/13 01:46:14;;;;;;;10.77;2.63;;;8.70;72.00;;;;;;4110495;28;20029;-83
2022/10/13 01:48:16;;;;;;;10.45;2.55;;;8.70;72.00;;;;;;4107905;28;20030;-83
2022/10/13 01:50:19;;;;;;;14.45;3.38;;;8.70;72.00;;;;;;4110792;28;20700;-83
2022/10/13 01:52:24;;;;;;;12.65;2.83;;;8.70;72.00;;;;;;4110503;28;20376;-83
2022/10/13 01:54:24;;;;;;;14.60;2.53;;;8.70;72.00;;;;;;4109275;28;20027;-83
2022/10/13 01:56:25;;;;;;;7.50;2.22;;;8.70;72.10;;;;;;4108863;28;20400;-83
2022/10/13 01:58:29;;;;;;;8.10;2.25;;;8.80;72.20;;;;;;4124952;28;20450;-82
2022/10/13 02:00:36;;;;;;;8.50;2.70;;;8.80;72.20;;;;;;4125271;28;20037;-83
2022/10/13 02:03:22;;;;;;;13.73;3.03;;;8.80;72.30;;;;;;4111345;28;20035;-83
2022/10/13 02:05:58;;;;;;;8.57;2.53;;;8.70;72.40;;;;;;4104113;28;20049;-83
2022/10/13 02:08:11;;;;;;;14.32;2.38;;;8.80;72.20;;;;;;4120408;28;20493;-82
2022/10/13 02:10:57;;;;;;;5.68;2.35;;;8.70;71.90;;;;;;4115144;28;20045;-83
2022/10/13 02:13:06;;;;;;;10.25;2.53;;;8.80;72.20;;;;;;4106142;28;20034;-82
2022/10/13 02:15:11;;;;;;;9.63;2.50;;;8.80;72.00;;;;;;4118740;28;20038;-81
2022/10/13 02:17:12;;;;;;;6.80;2.40;;;8.80;72.10;;;;;;4125567;28;20210;-83
2022/10/13 02:19:16;;;;;;;9.98;2.42;;;8.70;72.00;;;;;;4132976;28;20027;-83
2022/10/13 02:21:16;;;;;;;6.78;2.63;;;8.70;72.00;;;;;;4111298;28;20035;-83
2022/10/13 02:23:17;;;;;;;11.73;2.78;;;8.70;71.90;;;;;;4111086;28;20541;-83
2022/10/13 02:25:18;;;;;;;11.70;2.92;;;8.80;72.00;;;;;;4109023;28;20054;-83
2022/10/13 02:27:20;;;;;;;4.80;2.03;;;8.70;71.80;;;;;;4113466;28;20031;-83
2022/10/13 02:29:21;;;;;;;15.65;2.85;;;8.80;71.90;;;;;;4108820;28;20047;-83
2022/10/13 02:31:21;;;;;;;11.18;2.95;;;8.70;71.80;;;;;;4111314;28;20043;-84
2022/10/13 02:33:22;;;;;;;6.95;2.10;;;8.70;71.80;;;;;;4106658;28;20035;-82
2022/10/13 02:35:23;;;;;;;10.02;2.35;;;8.70;71.90;;;;;;4103576;28;20145;-83
2022/10/13 02:37:25;;;;;;;10.55;2.40;;;8.60;71.80;;;;;;4109263;28;20037;-83
2022/10/13 02:39:45;;;;;;;11.05;2.60;;;8.60;71.80;;;;;;4103220;28;20189;-83
2022/10/13 02:42:06;;;;;;;9.15;2.67;;;8.60;71.80;;;;;;4124840;28;20042;-81
2022/10/13 02:44:07;;;;;;;11.52;2.95;;;8.60;71.80;;;;;;4112888;28;20053;-83
2022/10/13 02:46:27;;;;;;;11.93;2.70;;;8.60;71.80;;;;;;4123127;28;20037;-83
2022/10/13 02:48:48;;;;;;;7.88;2.83;;;8.60;71.80;;;;;;4109720;28;20422;-83
2022/10/13 02:50:49;;;;;;;7.82;1.80;;;8.60;71.70;;;;;;4108607;28;20074;-82
2022/10/13 02:53:09;;;;;;;9.48;2.63;;;8.60;71.80;;;;;;4112533;28;20122;-84
2022/10/13 02:55:23;;;;;;;9.05;2.55;;;8.70;71.90;;;;;;4108342;28;20092;-83
2022/10/13 02:57:44;;;;;;;10.20;2.60;;;8.70;72.00;;;;;;4104936;28;20039;-83
2022/10/13 03:00:06;;;;;;;10.07;2.72;;;8.50;71.80;;;;;;4107704;28;20043;-84
2022/10/13 03:02:27;;;;;;;7.68;2.42;;;8.60;71.80;;;;;;4107700;28;20779;-83
2022/10/13 03:04:48;;;;;;;13.85;3.35;;;8.60;71.80;;;;;;4105465;28;20479;-84
2022/10/13 03:07:09;;;;;;;10.32;2.65;;;8.50;71.80;;;;;;4105551;28;20043;-83
2022/10/13 03:09:31;;;;;;;11.30;2.88;;;8.50;71.80;;;;;;4107646;28;20811;-84
2022/10/13 03:11:51;;;;;;;11.48;3.17;;;8.50;71.90;;;;;;4108415;28;20439;-83
2022/10/13 03:14:12;;;;;;;12.32;2.92;;;8.50;71.80;;;;;;4106146;28;20034;-83
2022/10/13 03:16:33;;;;;;;8.85;2.85;;;8.50;71.90;;;;;;4103319;28;20989;-83
2022/10/13 03:18:53;;;;;;;7.97;2.55;;;8.50;71.90;;;;;;4106083;28;20507;-83
2022/10/13 03:21:14;;;;;;;10.77;2.85;;;8.40;71.90;;;;;;4107328;28;20598;-83
2022/10/13 03:23:35;;;;;;;12.07;3.03;;;8.50;72.00;;;;;;4109432;28;20141;-83
2022/10/13 03:25:56;;;;;;;12.23;2.90;;;8.40;72.00;;;;;;4121061;28;20191;-83
2022/10/13 03:28:16;;;;;;;9.25;2.80;;;8.40;71.90;;;;;;4107396;28;20030;-83
2022/10/13 03:30:37;;;;;;;12.38;2.65;;;8.40;72.00;;;;;;4108125;28;20522;-83
2022/10/13 03:32:58;;;;;;;17.02;3.03;;;8.40;72.10;;;;;;4106455;28;20628;-82
2022/10/13 03:35:18;;;;;;;6.38;2.28;;;8.40;72.10;;;;;;4119662;28;20303;-83
2022/10/13 03:37:39;;;;;;;8.40;2.65;;;8.40;72.30;;;;;;4108952;28;20101;-83
2022/10/13 03:39:59;;;;;;;13.73;2.80;;;8.40;72.30;;;;;;4111462;28;20038;-83
2022/10/13 03:42:20;;;;;;;14.18;3.20;;;8.40;72.30;;;;;;4104994;28;20550;-83
2022/10/13 03:44:41;;;;;;;8.55;2.53;;;8.40;72.40;;;;;;4109340;28;20042;-82
2022/10/13 03:47:01;;;;;;;4.88;2.30;;;8.40;73.30;;;;;;4105728;28;20026;-83
2022/10/13 03:49:22;;;;;;;7.72;2.90;;;8.40;72.50;;;;;;4109273;28;20567;-83
2022/10/13 03:51:43;;;;;;;14.55;3.05;;;8.50;72.60;;;;;;4110362;28;20557;-84
2022/10/13 03:54:04;;;;;;;9.15;3.03;;;8.40;72.60;;;;;;4108887;28;20038;-84
2022/10/13 03:56:25;;;;;;;12.70;3.20;;;8.50;72.70;;;;;;4107592;28;20607;-85
2022/10/13 03:58:46;;;;;;;12.18;2.88;;;8.40;72.60;;;;;;4108170;28;20026;-83
2022/10/13 04:01:07;;;;;;;14.10;3.05;;;8.50;72.80;;;;;;4108359;28;20051;-84
2022/10/13 04:03:28;;;;;;;11.00;2.92;;;8.50;72.80;;;;;;4108171;28;20042;-84
2022/10/13 04:05:48;;;;;;;16.42;3.15;;;8.50;72.80;;;;;;4101773;28;20042;-84
2022/10/13 04:08:10;;;;;;;13.98;3.35;;;8.50;72.80;;;;;;4107455;28;20034;-84
2022/10/13 04:10:31;;;;;;;8.30;2.53;;;8.60;72.90;;;;;;4107919;28;20029;-84
2022/10/13 04:12:51;;;;;;;10.82;2.88;;;8.50;72.80;;;;;;4120245;28;20030;-84
2022/10/13 04:15:12;;;;;;;12.43;2.65;;;8.60;73.00;;;;;;4106279;28;20223;-84
2022/10/13 04:17:33;;;;;;;13.00;3.35;;;8.50;72.80;;;;;;4107869;28;20030;-84
2022/10/13 04:19:53;;;;;;;10.73;2.85;;;8.50;72.90;;;;;;4108675;28;20036;-83
2022/10/13 04:22:14;;;;;;;8.23;2.85;;;8.60;73.00;;;;;;4120366;28;20090;-82
2022/10/13 04:24:33;;;;;;;8.70;2.97;;;8.60;72.90;;;;;;4109113;28;20073;-84
2022/10/13 04:26:52;;;;;;;13.23;3.33;;;8.60;72.90;;;;;;4107171;28;20458;-84
2022/10/13 04:29:12;;;;;;;9.93;3.13;;;8.60;73.00;;;;;;4105334;28;20043;-84
2022/10/13 04:31:33;;;;;;;13.63;3.22;;;8.60;73.70;;;;;;4109558;28;20049;-83
2022/10/13 04:33:52;;;;;;;13.30;2.88;;;8.60;72.90;;;;;;4106729;28;20042;-83
2022/10/13 04:36:13;;;;;;;11.70;2.75;;;8.60;73.00;;;;;;4103578;28;20154;-83
2022/10/13 04:38:33;;;;;;;8.90;2.70;;;8.60;73.00;;;;;;4108152;28;20114;-84
2022/10/13 04:40:52;;;;;;;7.22;3.22;;;8.60;73.00;;;;;;4117752;28;20093;-84
2022/10/13 04:43:11;;;;;;;12.88;3.47;;;8.60;73.00;;;;;;4103011;28;20038;-84
2022/10/13 04:45:30;;;;;;;10.60;3.58;;;8.70;73.00;;;;;;4120673;28;20094;-84
2022/10/13 04:47:50;;;;;;;13.10;3.78;;;8.80;73.00;;;;;;4120607;28;20037;-84
2022/10/13 04:50:09;;;;;;;10.00;3.22;;;8.70;73.00;;;;;;4105429;28;20070;-83
2022/10/13 04:52:29;;;;;;;15.13;3.15;;;8.70;73.00;;;;;;4113332;28;20082;-83
2022/10/13 04:54:48;;;;;;;8.77;3.33;;;8.70;73.00;;;;;;4107767;28;20098;-84
2022/10/13 04:57:07;;;;;;;8.70;3.38;;;8.70;73.00;;;;;;4119278;28;20081;-84
2022/10/13 04:59:26;;;;;;;5.75;2.90;;;8.70;73.00;;;;;;4103785;28;20065;-84
2022/10/13 05:01:45;;;;;;;9.27;3.13;;;8.70;73.00;;;;;;4108174;28;20483;-84
2022/10/13 05:04:04;;;;;;;9.80;3.42;;;8.70;73.00;;;;;;4109477;28;20036;-84
2022/10/13 05:06:27;;;;;;;9.07;3.28;;;8.70;73.00;;;;;;4109991;28;20041;-84
2022/10/13 05:08:46;;;;;;;9.85;3.58;;;8.80;73.10;;;;;;4110583;28;20082;-85
2022/10/13 05:11:05;;;;;;;11.73;3.95;;;8.80;73.20;;;;;;4112401;28;20483;-84
2022/10/13 05:13:26;;;;;;;9.85;3.28;;;8.70;73.00;;;;;;4108974;28;20082;-84
2022/10/13 05:15:47;;;;;;;11.40;3.30;;;8.80;73.20;;;;;;4111502;28;20041;-85
2022/10/13 05:18:07;;;;;;;14.10;3.90;;;8.70;73.20;;;;;;4107270;28;20049;-84
2022/10/13 05:20:26;;;;;;;15.02;3.63;;;8.80;73.20;;;;;;4107309;28;20133;-84
2022/10/13 05:22:45;;;;;;;7.75;3.38;;;8.90;73.30;;;;;;4115540;28;20037;-86
2022/10/13 05:25:04;;;;;;;11.80;3.83;;;8.80;73.30;;;;;;4110261;28;20881;-85
2022/10/13 05:27:23;;;;;;;11.77;3.63;;;8.80;73.30;;;;;;4109544;28;20090;-84
2022/10/13 05:29:42;;;;;;;10.88;3.85;;;8.80;73.30;;;;;;4113691;28;20046;-84
2022/10/13 05:32:01;;;;;;;11.73;4.20;;;8.80;73.30;;;;;;4121752;28;20109;-84
2022/10/13 05:34:20;;;;;;;10.88;3.58;;;8.90;73.40;;;;;;4111106;28;20041;-84
2022/10/13 05:36:40;;;;;;;10.25;3.67;;;8.90;73.50;;;;;;4116999;28;20081;-84
2022/10/13 05:39:02;;;;;;;16.25;5.00;;;8.90;73.50;;;;;;4123458;28;20768;-85
2022/10/13 05:41:24;;;;;;;14.73;4.93;;;8.80;73.50;;;;;;4132161;28;20126;-84
2022/10/13 05:43:43;;;;;;;11.60;4.60;;;8.80;73.60;;;;;;4129917;28;20041;-85
2022/10/13 05:46:03;;;;;;;13.10;4.05;;;8.80;73.70;;;;;;4114289;28;20094;-85
2022/10/13 05:48:22;;;;;;;16.42;4.35;;;8.80;73.60;;;;;;4115040;28;20046;-84
2022/10/13 05:50:42;;;;;;;10.60;4.38;;;8.80;73.80;;;;;;4110137;28;20034;-85
2022/10/13 05:53:01;;;;;;;9.43;3.78;;;8.80;73.60;;;;;;4113691;28;20041;-84
2022/10/13 05:55:20;;;;;;;15.20;3.70;;;8.80;73.70;;;;;;4112997;28;20049;-84
2022/10/13 05:57:42;;;;;;;15.00;4.50;;;8.90;73.90;;;;;;4111847;28;20130;-84
2022/10/13 06:00:12;;;;;;;12.45;4.70;;;8.80;73.80;;;;;;4107899;28;20260;-84
2022/10/13 06:02:41;;;;;;;12.60;4.10;;;8.80;73.90;;;;;;4111803;28;20045;-83
2022/10/13 06:05:03;;;;;;;18.70;4.50;;;8.80;73.90;;;;;;4124969;28;20057;-84
2022/10/13 06:07:23;;;;;;;14.18;4.80;;;8.80;74.00;;;;;;4114109;28;20108;-83
2022/10/13 06:09:42;;;;;;;7.85;4.32;;;8.70;73.90;;;;;;4109998;28;20742;-84
2022/10/13 06:12:03;;;;;;;14.70;5.18;;;8.80;74.00;;;;;;4109200;28;20062;-84
2022/10/13 06:14:22;;;;;;;13.05;4.32;;;8.80;74.10;;;;;;4111566;28;20046;-85
2022/10/13 06:16:41;;;;;;;22.25;5.40;;;8.80;74.20;;;;;;4110716;28;20399;-84
2022/10/13 06:19:00;;;;;;;11.02;3.83;;;8.80;74.20;;;;;;4112286;28;20124;-84
2022/10/13 06:21:19;;;;;;;13.13;4.47;;;8.80;74.20;;;;;;4111136;28;20042;-84
2022/10/13 06:23:38;;;;;;;11.98;4.78;;;8.80;74.30;;;;;;4111345;28;20054;-83
2022/10/13 06:25:57;;;;;;;14.40;4.80;;;8.80;74.40;;;;;;4110361;28;20034;-83
2022/10/13 06:28:17;;;;;;;16.98;4.45;;;8.80;74.40;;;;;;4108555;28;20039;-84
2022/10/13 06:30:37;;;;;;;16.38;5.60;;;8.90;74.50;;;;;;4111758;28;20122;-84
2022/10/13 06:32:57;;;;;;;12.15;5.13;;;8.80;74.40;;;;;;4111476;28;20085;-85
2022/10/13 06:35:16;;;;;;;15.10;5.28;;;8.80;74.40;;;;;;4105661;28;20562;-83
2022/10/13 06:37:36;;;;;;;18.05;6.25;;;8.80;74.40;;;;;;4105226;28;20105;-84
2022/10/13 06:39:55;;;;;;;11.93;5.00;;;8.90;74.50;;;;;;4109287;28;20597;-85
2022/10/13 06:42:14;;;;;;;18.30;5.75;;;8.90;74.50;;;;;;4106318;28;20586;-85
2022/10/13 06:44:33;;;;;;;20.52;4.68;;;8.80;74.40;;;;;;4108156;28;20135;-85
2022/10/13 06:46:52;;;;;;;14.68;5.68;;;8.90;74.50;;;;;;4110150;28;20555;-84
2022/10/13 06:49:11;;;;;;;14.70;5.30;;;8.80;74.50;;;;;;4107497;28;20143;-84
2022/10/13 06:51:31;;;;;;;10.65;5.20;;;8.90;74.60;;;;;;4110481;28;20046;-84
2022/10/13 06:53:50;;;;;;;18.88;5.18;;;8.90;74.60;;;;;;4107873;28;20073;-84
2022/10/13 06:56:10;;;;;;;22.35;4.93;;;8.90;74.70;;;;;;4109024;28;20050;-85
2022/10/13 06:58:29;;;;;;;15.85;5.30;;;9.00;74.80;;;;;;4108404;28;20510;-85
2022/10/13 07:00:49;;;;;;;16.45;5.93;;;8.90;74.80;;;;;;4107730;28;20129;-84
2022/10/13 07:03:10;;;;;;;15.25;5.60;;;8.90;74.70;;;;;;4109436;28;20070;-84
2022/10/13 07:05:30;;;;;;;14.93;5.68;;;9.00;74.90;;;;;;4107605;28;20049;-85
2022/10/13 07:07:52;;;;;;;15.75;5.32;;;8.90;74.80;;;;;;4107449;28;20561;-84
2022/10/13 07:10:12;;;;;;;18.30;5.38;;;9.00;74.90;;;;;;4111077;28;20041;-85
2022/10/13 07:12:31;;;;;;;24.77;6.15;;;9.00;75.00;;;;;;4105171;28;21748;-84
2022/10/13 07:14:50;;;;;;;18.10;5.80;;;9.10;75.20;;;;;;4109213;28;20050;-83
2022/10/13 07:17:09;;;;;;;17.20;5.82;;;9.10;75.10;;;;;;4109954;28;20178;-84
2022/10/13 07:19:28;;;;;;;17.95;5.53;;;9.20;75.90;;;;;;4107308;28;20058;-84
2022/10/13 07:21:47;;;;;;;17.67;5.82;;;9.20;75.90;;;;;;4104170;28;20785;-84
2022/10/13 07:24:06;;;;;;;19.17;5.95;;;9.20;75.10;;;;;;4100707;28;20049;-83
2022/10/13 07:26:26;;;;;;;14.77;5.90;;;9.20;75.10;;;;;;4106937;28;20690;-83
2022/10/13 07:28:45;;;;;;;15.50;6.32;;;9.20;75.10;;;;;;4103458;28;20045;-84
2022/10/13 07:31:10;;;;;;;15.07;5.93;;;9.20;75.10;;;;;;4102330;28;20344;-84
2022/10/13 07:33:29;;;;;;;25.30;7.43;;;9.20;75.10;;;;;;4104209;28;20118;-82
2022/10/13 07:35:48;;;;;;;16.90;6.25;;;9.20;75.00;;;;;;4100090;28;20133;-83
2022/10/13 07:38:08;;;;;;;18.02;6.57;;;9.30;75.10;;;;;;4102397;28;20038;-82
2022/10/13 07:40:27;;;;;;;31.75;9.20;;;9.30;75.00;;;;;;4105194;28;20037;-83
2022/10/13 07:42:46;;;;;;;16.08;6.07;;;9.30;75.00;;;;;;4102891;28;20058;-83
2022/10/13 07:45:05;;;;;;;15.32;6.75;;;9.30;75.10;;;;;;4104257;28;20034;-82
2022/10/13 07:47:25;;;;;;;18.77;6.90;;;9.30;75.00;;;;;;4110945;28;20030;-82
2022/10/13 07:49:44;;;;;;;16.48;7.25;;;9.30;75.00;;;;;;4107510;28;20525;-82
2022/10/13 07:52:04;;;;;;;14.25;6.70;;;9.30;75.00;;;;;;4113305;28;20077;-81
2022/10/13 07:54:23;;;;;;;20.75;7.95;;;9.30;75.00;;;;;;4103253;28;20664;-82
2022/10/13 07:56:55;;;;;;;18.10;6.80;;;9.40;75.10;;;;;;4101965;28;20131;-82
2022/10/13 07:59:18;;;;;;;20.27;6.65;;;9.40;75.30;;;;;;4105413;28;20118;-82
2022/10/13 08:01:41;;;;;;;17.40;7.38;;;9.40;75.10;;;;;;4108581;28;20089;-82
2022/10/13 08:04:05;;;;;;;26.60;7.57;;;9.40;75.20;;;;;;4103281;28;20033;-82
2022/10/13 08:06:28;;;;;;;25.75;7.57;;;9.40;75.10;;;;;;4102861;28;20395;-83
2022/10/13 08:08:50;;;;;;;20.73;7.35;;;9.50;75.30;;;;;;4117162;28;20120;-83
2022/10/13 08:11:12;;;;;;;16.88;6.80;;;9.50;75.40;;;;;;4100314;28;20559;-83
2022/10/13 08:13:35;;;;;;;20.38;7.20;;;9.50;75.50;;;;;;4098186;28;20053;-84
2022/10/13 08:16:00;;;;;;;21.13;7.47;;;9.60;75.60;;;;;;4101712;28;20045;-83
2022/10/13 08:18:22;;;;;;;26.45;7.50;;;9.60;75.60;;;;;;4100447;28;20399;-83
2022/10/13 08:20:45;;;;;;;22.98;8.25;;;9.70;75.60;;;;;;4102056;28;20846;-82
2022/10/13 08:23:04;;;;;;;22.60;7.65;;;9.70;75.60;;;;;;4092158;28;20179;-83
2022/10/13 08:25:23;;;;;;;24.02;7.95;;;9.80;75.70;;;;;;4101547;28;20046;-82
2022/10/13 08:27:42;;;;;;;22.15;7.82;;;9.80;75.80;;;;;;4102866;28;20119;-82
2022/10/13 08:30:01;;;;;;;28.40;8.13;;;9.80;75.70;;;;;;4102065;28;20042;-82
2022/10/13 08:32:22;;;;;;;20.48;8.38;;;9.80;75.70;;;;;;4109249;28;20072;-83
2022/10/13 08:34:41;;;;;;;24.40;8.07;;;9.90;75.80;;;;;;4111421;28;20642;-83
2022/10/13 08:37:00;;;;;;;22.60;7.82;;;10.00;75.80;;;;;;4110605;28;20045;-83
2022/10/13 08:39:21;;;;;;;22.33;7.60;;;9.90;75.80;;;;;;4107367;28;20045;-83
2022/10/13 08:41:44;;;;;;;21.15;7.38;;;10.00;75.80;;;;;;4107012;28;21131;-83
2022/10/13 08:44:17;;;;;;;;;;;10.10;75.80;;;;;;4110073;28;20522;-84
2022/10/13 08:46:56;;;;;;;26.42;8.50;;;10.10;76.40;;;;;;4108969;28;19985;-83
2022/10/13 08:49:17;;;;;;;22.50;8.82;;;10.10;75.70;;;;;;4108679;28;20073;-84
2022/10/13 08:51:36;;;;;;;19.25;7.93;;;10.20;75.80;;;;;;4115074;28;20034;-84
2022/10/13 08:53:55;;;;;;;16.40;7.55;;;10.30;75.90;;;;;;4108115;28;20617;-83
2022/10/13 08:56:24;;;;;;;19.40;8.27;;;10.30;75.90;;;;;;4109118;28;20054;-84
2022/10/13 08:58:43;;;;;;;21.15;9.18;;;10.30;76.00;;;;;;4107920;28;20082;-83
2022/10/13 09:01:23;;;;;;;25.73;8.43;;;10.40;76.10;;;;;;4109382;28;20037;-83
2022/10/13 09:04:01;;;;;;;29.90;8.75;;;10.50;76.30;;;;;;4109504;28;20049;-82
2022/10/13 09:06:27;;;;;;;24.90;9.68;;;10.50;76.30;;;;;;4108730;28;21263;-84
2022/10/13 09:08:56;;;;;;;22.88;8.82;;;10.60;76.20;;;;;;4097897;28;20094;-83
2022/10/13 09:11:16;;;;;;;28.02;10.40;;;10.60;76.10;;;;;;4094771;28;20034;-84
2022/10/13 09:13:38;;;;;;;24.77;9.82;;;10.70;76.20;;;;;;4105282;28;20518;-84
2022/10/13 09:15:58;;;;;;;21.88;9.30;;;10.80;76.20;;;;;;4104994;28;20097;-84
2022/10/13 09:18:17;;;;;;;20.35;10.30;;;10.80;76.10;;;;;;4103654;28;20050;-83
2022/10/13 09:20:36;;;;;;;24.83;10.70;;;10.90;75.90;;;;;;4110384;28;20475;-83
2022/10/13 09:23:06;;;;;;;34.75;9.95;;;10.90;75.80;;;;;;4109693;28;20069;-84
2022/10/13 09:25:25;;;;;;;32.17;10.07;;;11.10;75.70;;;;;;4100934;28;20054;-84
2022/10/13 09:27:51;;;;;;;25.23;9.70;;;11.10;75.60;;;;;;4106388;28;20407;-83
2022/10/13 09:30:30;;;;;;;40.40;10.50;;;11.10;75.50;;;;;;4104155;28;20431;-83
2022/10/13 09:32:49;;;;;;;25.73;10.30;;;11.30;75.40;;;;;;4106460;28;20122;-83
2022/10/13 09:35:20;;;;;;;25.77;10.25;;;11.20;75.30;;;;;;4106448;28;20065;-84
2022/10/13 09:37:39;;;;;;;36.92;12.23;;;11.30;75.10;;;;;;4104375;28;20130;-84
2022/10/13 09:40:01;;;;;;;26.48;11.38;;;11.30;74.90;;;;;;4103060;28;20055;-84
2022/10/13 09:42:29;;;;;;;33.85;11.60;;;11.30;74.50;;;;;;4107271;28;20455;-83
2022/10/13 09:45:01;;;;;;;26.38;10.80;;;11.40;74.30;;;;;;4104073;28;20109;-84
2022/10/13 09:47:21;;;;;;;34.13;11.15;;;11.40;74.30;;;;;;4097786;28;20038;-84
2022/10/13 09:49:43;;;;;;;22.65;10.57;;;11.50;74.30;;;;;;4102643;28;20041;-83
2022/10/13 09:52:12;;;;;;;26.92;10.88;;;11.50;74.30;;;;;;4101891;28;20049;-84
2022/10/13 09:54:39;;;;;;;23.95;10.27;;;11.50;74.30;;;;;;4105324;28;20035;-84
2022/10/13 09:57:13;;;;;;;31.48;10.93;;;11.60;74.30;;;;;;4104927;28;20069;-84
2022/10/13 09:59:35;;;;;;;29.42;12.48;;;11.60;74.10;;;;;;4104774;28;20089;-84
2022/10/13 10:01:56;;;;;;;33.35;11.80;;;11.70;74.00;;;;;;4103378;28;20517;-82
2022/10/13 10:04:23;;;;;;;35.05;11.55;;;11.80;74.00;;;;;;4104854;28;20395;-83
2022/10/13 10:06:44;;;;;;;33.28;11.98;;;11.80;73.70;;;;;;4100926;28;20066;-83
2022/10/13 10:09:34;;;;;;;26.80;10.75;;;11.80;73.40;;;;;;4101124;28;20945;-85
2022/10/13 10:11:57;;;;;;;25.95;11.82;;;11.80;73.20;;;;;;4101773;28;20104;-83
2022/10/13 10:14:24;;;;;;;27.52;12.00;;;12.00;73.40;;;;;;4103613;28;20186;-82
2022/10/13 10:17:00;;;;;;;31.45;11.80;;;11.90;73.10;;;;;;4097084;28;20054;-84
2022/10/13 10:19:50;;;;;;;23.15;10.13;;;11.90;73.00;;;;;;4102086;28;20081;-84
2022/10/13 10:22:24;;;;;;;30.17;10.90;;;12.00;73.00;;;;;;4102876;28;20045;-85
2022/10/13 10:24:57;;;;;;;30.33;11.32;;;12.00;72.90;;;;;;4104517;28;20034;-83
2022/10/13 10:27:25;;;;;;;24.83;10.90;;;12.10;72.80;;;;;;4107133;28;20120;-84
2022/10/13 10:30:11;;;;;;;34.20;13.23;;;12.10;72.60;;;;;;4107269;28;20057;-84
2022/10/13 10:32:50;;;;;;;28.15;12.10;;;12.10;72.30;;;;;;4107661;28;20122;-84
2022/10/13 10:35:15;;;;;;;26.73;11.75;;;12.10;72.00;;;;;;4100769;28;20077;-84
2022/10/13 10:38:05;;;;;;;28.63;11.25;;;12.10;71.70;;;;;;4102911;28;20046;-84
2022/10/13 10:40:36;;;;;;;28.52;12.68;;;12.10;71.40;;;;;;4103856;28;20518;-84
2022/10/13 10:43:33;;;;;;;32.65;11.90;;;12.20;71.30;;;;;;4104432;28;20046;-84
2022/10/13 10:45:55;;;;;;;25.40;11.38;;;12.20;71.00;;;;;;4107284;28;20085;-85
2022/10/13 10:48:42;;;;;;;30.88;11.80;;;12.20;71.00;;;;;;4104888;28;20101;-84
2022/10/13 10:51:06;;;;;;;25.40;11.02;;;12.10;70.80;;;;;;4107094;28;20041;-84
2022/10/13 10:53:52;;;;;;;30.05;11.85;;;12.10;70.70;;;;;;4101457;28;20076;-84
2022/10/13 10:56:11;;;;;;;30.35;11.07;;;12.10;70.60;;;;;;4107977;28;20316;-84
2022/10/13 10:58:58;;;;;;;30.88;12.32;;;12.10;70.60;;;;;;4113394;28;20046;-84
2022/10/13 11:01:55;;;;;;;24.70;11.98;;;12.00;70.60;;;;;;4105259;28;20041;-84
2022/10/13 11:04:43;;;;;;;26.02;11.20;;;12.00;70.70;;;;;;4095391;28;20034;-84
2022/10/13 11:07:03;;;;;;;26.02;11.30;;;11.90;70.70;;;;;;4108388;28;20054;-84
2022/10/13 11:09:41;;;;;;;27.63;12.07;;;11.90;70.90;;;;;;4107802;28;20053;-84
2022/10/13 11:12:00;;;;;;;30.52;11.35;;;11.90;71.10;;;;;;4104128;28;20049;-85
2022/10/13 11:14:27;;;;;;;26.05;11.68;;;11.80;71.00;;;;;;4102337;28;20098;-85
2022/10/13 11:17:26;;;;;;;27.58;11.85;;;11.80;71.20;;;;;;4105416;28;20038;-84
2022/10/13 11:19:47;;;;;;;30.40;12.43;;;11.80;71.70;;;;;;4106934;28;20564;-84
2022/10/13 11:22:06;;;;;;;25.10;10.57;;;11.80;71.60;;;;;;4104695;28;20101;-85
2022/10/13 11:24:32;;;;;;;30.45;11.82;;;11.80;71.80;;;;;;4105728;28;20481;-83
2022/10/13 11:26:51;;;;;;;27.58;10.68;;;11.80;72.00;;;;;;4099011;28;20961;-84
2022/10/13 11:29:18;;;;;;;25.95;10.88;;;11.80;72.20;;;;;;4102661;28;20122;-85
2022/10/13 11:31:53;;;;;;;27.83;10.82;;;11.80;72.50;;;;;;4103300;28;20393;-83
2022/10/13 11:34:27;;;;;;;24.55;10.10;;;11.80;72.80;;;;;;4107896;28;20037;-83
2022/10/13 11:36:55;;;;;;;31.33;11.35;;;11.90;72.90;;;;;;4105401;28;20041;-84
2022/10/13 11:39:24;;;;;;;24.52;9.93;;;11.80;72.80;;;;;;4105776;28;20126;-84
2022/10/13 11:42:26;;;;;;;24.55;10.15;;;11.80;72.80;;;;;;4107794;28;20057;-84
2022/10/13 11:45:09;;;;;;;24.45;9.85;;;11.80;73.00;;;;;;4062202;29;20043;-84
2022/10/13 11:47:53;;;;;;;21.60;10.00;;;11.90;73.30;;;;;;4067374;29;20042;-85
2022/10/13 11:50:35;;;;;;;25.95;10.55;;;11.90;73.50;;;;;;4062588;29;20054;-84
2022/10/13 11:53:13;;;;;;;30.60;10.15;;;11.90;73.40;;;;;;4060132;29;20047;-85
2022/10/13 11:55:51;;;;;;;34.45;10.98;;;11.90;73.30;;;;;;4064277;29;20082;-84
2022/10/13 11:58:19;;;;;;;22.42;10.05;;;12.00;73.50;;;;;;4065695;29;20042;-85
2022/10/13 12:01:02;;;;;;;19.70;10.13;;;12.00;74.10;;;;;;4066289;29;20046;-84
2022/10/13 12:03:22;;;;;;;23.45;9.93;;;12.00;73.40;;;;;;4065652;29;20122;-84
2022/10/13 12:05:46;;;;;;;27.83;10.55;;;12.00;73.20;;;;;;4066393;29;20066;-84
2022/10/13 12:08:05;;;;;;;19.15;9.77;;;12.00;73.20;;;;;;4069873;29;20099;-84
2022/10/13 12:10:31;;;;;;;20.58;9.45;;;12.00;73.00;;;;;;4066620;29;20055;-84
2022/10/13 12:12:52;;;;;;;27.88;10.38;;;12.00;73.20;;;;;;4068820;29;20417;-84
2022/10/13 12:15:28;;;;;;;28.42;10.05;;;12.00;73.30;;;;;;4066196;29;20142;-84
2022/10/13 12:17:48;;;;;;;25.80;11.05;;;12.00;73.50;;;;;;4068541;29;20427;-84
2022/10/13 12:20:23;;;;;;;25.27;10.70;;;12.10;73.50;;;;;;4103909;28;20053;-85